Time;durP1;ratioP1;P1;durP2;ratioP2;P2;SDS_P1;SDS_P2;PMS_P1;PMS_P2;Temp;Humidity;BMP_temperature;BMP_pressure;BME280_temperature;BME280_humidity;BME280_pressure;Samples;Min_cycle;Max_cycle;Signal;HPM_P1;HPM_P2
2022/04/14 00:00:37;;;;;;;7.85;5.30;;;11.40;64.10;;;;;;5101173;28;20250;-63
2022/04/14 00:03:03;;;;;;;7.53;4.50;;;11.40;64.10;;;;;;5099043;28;20189;-63
2022/04/14 00:05:30;;;;;;;6.95;4.95;;;11.30;63.70;;;;;;5098277;28;20662;-63
2022/04/14 00:07:57;;;;;;;5.13;4.47;;;11.30;64.30;;;;;;5098797;28;20286;-64
2022/04/14 00:10:24;;;;;;;6.40;5.43;;;11.20;65.40;;;;;;5100012;28;20207;-63
2022/04/14 00:12:51;;;;;;;10.88;5.68;;;11.20;66.20;;;;;;5096418;28;20184;-62
2022/04/14 00:15:18;;;;;;;7.55;6.07;;;11.10;66.40;;;;;;5097636;28;20225;-63
2022/04/14 00:17:47;;;;;;;8.10;5.35;;;11.00;65.90;;;;;;5099733;28;20243;-63
2022/04/14 00:20:13;;;;;;;7.50;4.78;;;11.00;68.00;;;;;;5098493;28;20225;-63
2022/04/14 00:22:40;;;;;;;8.63;5.45;;;11.00;67.60;;;;;;5099946;28;20205;-63
2022/04/14 00:25:10;;;;;;;5.30;4.65;;;10.90;68.10;;;;;;5102278;28;20193;-63
2022/04/14 00:27:37;;;;;;;6.97;5.20;;;10.90;68.30;;;;;;5099118;28;20203;-62
2022/04/14 00:30:05;;;;;;;6.70;5.78;;;10.90;68.60;;;;;;5097560;28;20189;-63
2022/04/14 00:32:32;;;;;;;7.47;5.28;;;10.90;69.10;;;;;;5096496;28;20531;-63
2022/04/14 00:35:00;;;;;;;4.95;4.18;;;10.90;70.60;;;;;;5101203;28;20196;-63
2022/04/14 00:37:27;;;;;;;5.18;4.68;;;10.70;70.30;;;;;;5100583;28;20212;-63
2022/04/14 00:39:54;;;;;;;7.38;5.35;;;10.70;70.70;;;;;;5097063;28;20234;-64
2022/04/14 00:42:21;;;;;;;7.40;5.28;;;10.60;70.60;;;;;;5100097;28;20198;-62
2022/04/14 00:44:48;;;;;;;6.00;5.30;;;10.60;70.50;;;;;;5099885;28;20246;-62
2022/04/14 00:47:15;;;;;;;7.65;5.05;;;10.50;70.90;;;;;;5102040;28;20279;-63
2022/04/14 00:49:42;;;;;;;7.15;5.85;;;10.50;70.30;;;;;;5099749;28;20212;-62
2022/04/14 00:52:10;;;;;;;6.72;4.65;;;10.50;70.90;;;;;;5101944;28;20193;-63
2022/04/14 00:54:37;;;;;;;7.35;5.18;;;10.40;70.30;;;;;;5099486;28;20185;-63
2022/04/14 00:57:05;;;;;;;8.15;5.10;;;10.50;71.10;;;;;;5099418;28;20207;-63
2022/04/14 00:59:32;;;;;;;5.18;4.65;;;10.50;71.30;;;;;;5100249;28;20247;-64
2022/04/14 01:01:59;;;;;;;7.63;5.30;;;10.50;71.30;;;;;;5103593;27;20207;-63
2022/04/14 01:04:27;;;;;;;8.00;4.95;;;10.50;70.20;;;;;;5101556;28;20271;-64
2022/04/14 01:06:54;;;;;;;7.03;4.88;;;10.50;69.70;;;;;;5104530;28;20238;-64
2022/04/14 01:09:26;;;;;;;6.38;5.50;;;10.50;70.30;;;;;;5096105;28;20647;-62
2022/04/14 01:11:54;;;;;;;5.03;4.45;;;10.50;69.80;;;;;;5102870;28;20202;-63
2022/04/14 01:14:25;;;;;;;5.93;5.05;;;10.50;69.40;;;;;;5103375;28;20199;-63
2022/04/14 01:16:52;;;;;;;11.38;5.28;;;10.40;68.90;;;;;;5102949;28;20230;-62
2022/04/14 01:19:19;;;;;;;5.60;4.72;;;10.40;69.00;;;;;;5103458;28;20273;-63
2022/04/14 01:21:51;;;;;;;6.00;4.55;;;10.40;68.50;;;;;;5103457;28;20199;-63
2022/04/14 01:24:19;;;;;;;8.98;5.05;;;10.30;69.20;;;;;;5104381;28;20666;-63
2022/04/14 01:26:46;;;;;;;6.55;4.72;;;10.30;69.50;;;;;;5106713;28;20193;-63
2022/04/14 01:29:22;;;;;;;7.20;4.50;;;10.30;70.00;;;;;;5104877;28;20188;-63
2022/04/14 01:31:49;;;;;;;6.18;4.82;;;10.30;70.70;;;;;;5106883;28;20230;-63
2022/04/14 01:34:15;;;;;;;6.10;5.28;;;10.30;70.70;;;;;;5103365;28;20542;-62
2022/04/14 01:36:42;;;;;;;7.38;5.05;;;10.20;71.10;;;;;;5106481;28;20195;-63
2022/04/14 01:39:10;;;;;;;7.13;5.60;;;10.20;72.10;;;;;;5103451;28;20305;-63
2022/04/14 01:41:38;;;;;;;7.53;5.25;;;10.10;72.20;;;;;;5104968;28;20224;-63
2022/04/14 01:44:06;;;;;;;9.75;5.43;;;10.10;71.80;;;;;;5102186;28;20646;-63
2022/04/14 01:46:33;;;;;;;6.97;4.70;;;10.20;71.30;;;;;;5106972;28;20702;-63
2022/04/14 01:49:00;;;;;;;8.05;5.38;;;10.20;70.60;;;;;;5099406;28;20195;-62
2022/04/14 01:51:27;;;;;;;5.75;4.65;;;10.20;70.00;;;;;;5107007;28;20208;-63
2022/04/14 01:53:54;;;;;;;8.40;5.28;;;10.20;70.20;;;;;;5104429;28;20195;-64
2022/04/14 01:56:21;;;;;;;6.55;4.70;;;10.10;72.10;;;;;;5105309;28;20785;-63
2022/04/14 01:58:50;;;;;;;5.22;4.45;;;10.10;72.60;;;;;;5103261;28;20587;-63
2022/04/14 02:01:17;;;;;;;6.55;4.38;;;10.00;72.50;;;;;;5108661;28;20281;-63
2022/04/14 02:03:44;;;;;;;7.65;4.45;;;10.00;72.80;;;;;;5105837;28;20679;-63
2022/04/14 02:06:10;;;;;;;4.85;3.80;;;10.00;73.00;;;;;;5101127;28;20199;-63
2022/04/14 02:08:37;;;;;;;6.57;5.13;;;10.00;72.80;;;;;;5105200;28;20180;-63
2022/04/14 02:11:05;;;;;;;8.73;5.07;;;10.10;73.90;;;;;;5106955;28;20222;-62
2022/04/14 02:13:32;;;;;;;8.00;5.85;;;10.00;73.70;;;;;;5107362;28;20676;-64
2022/04/14 02:16:01;;;;;;;5.75;4.30;;;10.10;74.50;;;;;;5108787;28;20283;-63
2022/04/14 02:18:28;;;;;;;5.10;4.18;;;10.00;74.50;;;;;;5105012;28;20243;-64
2022/04/14 02:20:55;;;;;;;4.95;4.03;;;10.10;74.90;;;;;;5099546;28;20274;-63
2022/04/14 02:23:23;;;;;;;8.18;5.00;;;10.00;74.60;;;;;;5091324;28;20271;-63
2022/04/14 02:25:51;;;;;;;5.65;4.65;;;10.10;74.50;;;;;;5093742;28;20284;-63
2022/04/14 02:28:19;;;;;;;8.95;4.20;;;10.00;74.50;;;;;;5091684;28;20292;-63
2022/04/14 02:30:46;;;;;;;6.82;4.93;;;10.00;74.50;;;;;;5094493;28;20200;-62
2022/04/14 02:33:15;;;;;;;7.63;4.50;;;9.90;75.80;;;;;;5095557;28;20663;-63
2022/04/14 02:35:42;;;;;;;5.03;4.22;;;9.90;75.70;;;;;;5096746;28;20287;-64
2022/04/14 02:38:09;;;;;;;5.55;4.15;;;9.90;75.70;;;;;;5095180;28;20279;-65
2022/04/14 02:40:36;;;;;;;9.23;4.68;;;9.90;74.90;;;;;;5097176;28;20312;-63
2022/04/14 02:43:03;;;;;;;5.65;4.05;;;10.00;73.00;;;;;;5095804;28;20618;-63
2022/04/14 02:45:30;;;;;;;8.30;4.50;;;9.90;74.00;;;;;;5095394;28;20219;-63
2022/04/14 02:47:57;;;;;;;6.88;4.85;;;9.90;73.30;;;;;;5094488;28;20292;-63
2022/04/14 02:50:25;;;;;;;14.50;5.22;;;10.00;72.20;;;;;;5093536;28;20723;-64
2022/04/14 02:52:54;;;;;;;6.53;4.75;;;10.00;73.00;;;;;;5098973;28;20564;-63
2022/04/14 02:55:21;;;;;;;6.25;4.43;;;9.90;72.40;;;;;;5100320;28;20231;-63
2022/04/14 02:57:49;;;;;;;6.05;5.00;;;9.80;71.40;;;;;;5101386;28;20280;-63
2022/04/14 03:00:16;;;;;;;6.90;5.07;;;9.80;72.00;;;;;;5100038;28;20232;-65
2022/04/14 03:02:43;;;;;;;6.97;5.15;;;9.70;72.00;;;;;;5099723;28;20236;-62
2022/04/14 03:05:11;;;;;;;6.85;4.28;;;9.70;73.50;;;;;;5101229;28;20627;-65
2022/04/14 03:07:40;;;;;;;5.60;4.60;;;9.70;72.70;;;;;;5102946;28;20196;-63
2022/04/14 03:10:08;;;;;;;8.40;5.43;;;9.70;73.00;;;;;;5100285;28;20201;-63
2022/04/14 03:12:42;;;;;;;6.38;5.05;;;9.70;73.90;;;;;;5100217;28;20281;-63
2022/04/14 03:15:09;;;;;;;7.88;5.25;;;9.80;74.40;;;;;;5101197;28;20288;-63
2022/04/14 03:17:36;;;;;;;8.50;5.82;;;9.80;74.70;;;;;;5101854;28;20221;-63
2022/04/14 03:20:04;;;;;;;10.65;6.05;;;9.90;75.40;;;;;;5099729;28;20555;-63
2022/04/14 03:22:34;;;;;;;8.55;5.63;;;9.90;75.00;;;;;;5101074;28;20288;-63
2022/04/14 03:25:03;;;;;;;6.97;4.95;;;9.90;73.40;;;;;;5101071;28;20550;-68
2022/04/14 03:27:30;;;;;;;5.65;4.80;;;9.80;72.30;;;;;;5102063;28;20625;-63
2022/04/14 03:29:57;;;;;;;7.30;4.68;;;9.70;73.10;;;;;;5097436;28;20288;-63
2022/04/14 03:32:25;;;;;;;5.85;5.18;;;9.70;73.00;;;;;;5101140;28;20634;-65
2022/04/14 03:34:52;;;;;;;7.70;4.40;;;9.70;72.80;;;;;;5102860;28;20189;-64
2022/04/14 03:37:19;;;;;;;6.32;4.35;;;9.70;72.60;;;;;;5101391;28;20283;-63
2022/04/14 03:39:46;;;;;;;6.75;4.00;;;9.60;72.30;;;;;;5101757;28;20309;-63
2022/04/14 03:42:14;;;;;;;5.35;4.65;;;9.60;72.30;;;;;;5101862;28;20280;-63
2022/04/14 03:44:41;;;;;;;4.22;3.65;;;9.60;72.10;;;;;;5103994;28;20276;-63
2022/04/14 03:47:09;;;;;;;5.38;4.63;;;9.50;71.70;;;;;;5104196;28;20260;-63
2022/04/14 03:49:37;;;;;;;6.10;4.80;;;9.40;71.80;;;;;;5101926;28;20216;-63
2022/04/14 03:52:04;;;;;;;7.47;5.25;;;9.30;72.50;;;;;;5102591;28;20220;-63
2022/04/14 03:54:31;;;;;;;6.93;5.50;;;9.20;73.70;;;;;;5106156;28;20280;-63
2022/04/14 03:56:58;;;;;;;7.00;5.10;;;9.20;72.70;;;;;;5105990;28;20282;-63
2022/04/14 03:59:26;;;;;;;7.57;4.82;;;9.10;72.70;;;;;;5100657;28;20271;-63
2022/04/14 04:01:53;;;;;;;7.80;5.18;;;8.90;74.10;;;;;;5106698;28;20272;-63
2022/04/14 04:04:20;;;;;;;6.60;4.78;;;8.90;75.00;;;;;;5103265;28;20622;-63
2022/04/14 04:06:47;;;;;;;8.90;4.13;;;8.80;76.30;;;;;;5105775;28;20275;-62
2022/04/14 04:09:14;;;;;;;9.18;5.00;;;8.80;76.80;;;;;;5105905;28;20283;-63
2022/04/14 04:11:41;;;;;;;6.40;5.45;;;8.80;77.40;;;;;;5107331;28;20711;-63
2022/04/14 04:14:08;;;;;;;6.40;4.45;;;8.80;77.30;;;;;;5108223;28;20227;-63
2022/04/14 04:16:36;;;;;;;5.93;4.28;;;8.90;76.90;;;;;;5106352;28;20592;-63
2022/04/14 04:19:03;;;;;;;8.23;5.85;;;8.90;76.40;;;;;;5103034;28;20651;-63
2022/04/14 04:21:31;;;;;;;7.43;4.20;;;8.90;75.90;;;;;;5107295;28;20255;-63
2022/04/14 04:23:58;;;;;;;6.10;4.50;;;9.00;76.50;;;;;;5110896;28;20593;-64
2022/04/14 04:26:25;;;;;;;8.10;4.70;;;9.00;75.30;;;;;;5105537;28;20279;-66
2022/04/14 04:28:52;;;;;;;7.63;4.35;;;9.00;75.20;;;;;;5108544;28;20283;-64
2022/04/14 04:31:19;;;;;;;8.63;4.38;;;9.10;75.40;;;;;;5110126;28;20289;-64
2022/04/14 04:33:51;;;;;;;6.30;4.82;;;9.10;75.00;;;;;;5107410;28;20284;-63
2022/04/14 04:36:18;;;;;;;7.68;4.10;;;9.10;74.20;;;;;;5107173;28;20189;-64
2022/04/14 04:38:44;;;;;;;7.85;4.00;;;9.10;74.10;;;;;;5105180;28;20291;-65
2022/04/14 04:41:11;;;;;;;6.63;4.10;;;9.10;74.30;;;;;;5102773;28;20616;-64
2022/04/14 04:43:38;;;;;;;7.57;4.20;;;9.10;74.60;;;;;;5107069;28;20188;-65
2022/04/14 04:46:07;;;;;;;5.95;3.90;;;9.10;74.50;;;;;;5107965;28;20279;-64
2022/04/14 04:48:34;;;;;;;5.70;4.20;;;9.10;74.90;;;;;;5109326;28;20200;-64
2022/04/14 04:51:02;;;;;;;8.82;4.75;;;9.10;75.20;;;;;;5106723;28;20581;-63
2022/04/14 04:53:29;;;;;;;8.00;5.05;;;9.20;75.50;;;;;;5112567;28;20614;-64
2022/04/14 04:55:56;;;;;;;7.03;5.88;;;9.20;75.40;;;;;;5095755;28;20288;-65
2022/04/14 04:58:23;;;;;;;7.05;5.95;;;9.20;75.30;;;;;;5092254;28;20292;-64
2022/04/14 05:00:50;;;;;;;7.00;5.43;;;9.20;75.80;;;;;;5096782;28;20746;-63
2022/04/14 05:03:17;;;;;;;7.97;4.72;;;9.20;75.60;;;;;;5098458;28;20197;-64
2022/04/14 05:05:44;;;;;;;6.53;4.80;;;9.20;75.20;;;;;;5097295;28;20284;-64
2022/04/14 05:08:12;;;;;;;7.97;5.20;;;9.20;75.70;;;;;;5101094;28;20242;-64
2022/04/14 05:10:39;;;;;;;6.45;5.40;;;9.10;74.80;;;;;;5095108;28;20279;-65
2022/04/14 05:13:06;;;;;;;9.15;4.78;;;9.10;76.00;;;;;;5091987;28;20252;-64
2022/04/14 05:15:35;;;;;;;7.10;5.50;;;9.20;76.10;;;;;;5092559;28;20263;-66
2022/04/14 05:18:02;;;;;;;8.98;5.07;;;9.20;76.20;;;;;;5090000;28;20251;-64
2022/04/14 05:20:29;;;;;;;5.95;5.22;;;9.30;76.90;;;;;;5090847;28;20256;-64
2022/04/14 05:22:56;;;;;;;6.80;4.88;;;9.40;77.30;;;;;;5091171;28;20284;-65
2022/04/14 05:25:24;;;;;;;7.70;5.93;;;9.50;77.60;;;;;;5090846;28;20291;-65
2022/04/14 05:27:51;;;;;;;6.15;4.75;;;9.60;77.80;;;;;;5094910;28;20237;-64
2022/04/14 05:30:21;;;;;;;6.00;4.97;;;9.70;77.90;;;;;;5092560;28;20275;-65
2022/04/14 05:32:48;;;;;;;8.20;5.40;;;9.80;78.30;;;;;;5090958;28;20192;-64
2022/04/14 05:35:16;;;;;;;15.93;7.28;;;9.90;78.10;;;;;;5093819;28;20185;-64
2022/04/14 05:37:43;;;;;;;8.93;6.10;;;10.10;77.00;;;;;;5094514;28;20197;-64
2022/04/14 05:40:10;;;;;;;12.65;6.80;;;10.20;77.30;;;;;;5098475;28;20287;-64
2022/04/14 05:42:39;;;;;;;8.63;5.72;;;10.30;78.20;;;;;;5093454;28;20271;-64
2022/04/14 05:45:08;;;;;;;12.40;7.40;;;10.40;78.70;;;;;;5093452;28;20184;-64
2022/04/14 05:47:35;;;;;;;9.70;6.45;;;10.50;78.00;;;;;;5093346;28;20196;-69
2022/04/14 05:50:02;;;;;;;12.00;5.95;;;10.60;77.50;;;;;;5091098;28;20285;-64
2022/04/14 05:52:29;;;;;;;11.32;6.45;;;10.70;77.50;;;;;;5101431;28;20204;-64
2022/04/14 05:55:02;;;;;;;10.80;6.93;;;10.80;77.70;;;;;;5101042;28;20246;-63
2022/04/14 05:57:29;;;;;;;10.55;6.63;;;11.00;78.10;;;;;;5094623;28;20193;-65
2022/04/14 05:59:58;;;;;;;11.10;5.97;;;11.10;78.70;;;;;;5092095;28;20235;-65
2022/04/14 06:02:26;;;;;;;7.07;6.38;;;11.20;79.00;;;;;;5089482;28;20311;-65
2022/04/14 06:04:54;;;;;;;8.68;6.70;;;11.30;79.00;;;;;;5092168;28;20216;-66
2022/04/14 06:07:21;;;;;;;9.43;6.32;;;11.50;78.40;;;;;;5100274;28;20287;-64
2022/04/14 06:09:47;;;;;;;11.35;8.00;;;11.50;78.40;;;;;;5090269;28;20280;-64
2022/04/14 06:12:14;;;;;;;12.68;8.75;;;11.70;79.70;;;;;;5096847;28;20694;-64
2022/04/14 06:14:41;;;;;;;12.02;9.15;;;11.80;80.30;;;;;;5092851;28;20283;-64
2022/04/14 06:17:10;;;;;;;11.73;7.80;;;12.00;80.00;;;;;;5095221;28;20312;-64
2022/04/14 06:19:38;;;;;;;9.30;6.57;;;12.10;79.00;;;;;;5098474;28;20232;-64
2022/04/14 06:22:05;;;;;;;12.40;8.05;;;12.20;78.30;;;;;;5098721;28;20216;-65
2022/04/14 06:24:32;;;;;;;17.95;7.75;;;12.40;77.50;;;;;;5096464;28;20204;-66
2022/04/14 06:26:59;;;;;;;6.63;5.57;;;12.60;76.80;;;;;;5090504;28;20217;-64
2022/04/14 06:29:26;;;;;;;11.27;6.35;;;12.80;76.70;;;;;;5100047;28;20227;-65
2022/04/14 06:31:54;;;;;;;12.18;6.07;;;13.00;76.40;;;;;;5100678;28;20305;-64
2022/04/14 06:34:22;;;;;;;9.05;6.43;;;13.20;76.20;;;;;;5105606;28;20196;-66
2022/04/14 06:36:49;;;;;;;14.38;6.40;;;13.40;76.20;;;;;;5094185;28;20279;-65
2022/04/14 06:39:16;;;;;;;10.60;6.60;;;13.60;76.70;;;;;;5093021;28;20201;-64
2022/04/14 06:41:44;;;;;;;13.90;6.50;;;13.80;76.60;;;;;;5093249;28;20228;-64
2022/04/14 06:44:11;;;;;;;11.13;7.47;;;14.00;76.20;;;;;;5095588;28;20238;-62
2022/04/14 06:46:39;;;;;;;12.40;6.80;;;14.20;76.40;;;;;;5094992;28;20193;-62
2022/04/14 06:49:06;;;;;;;11.23;7.70;;;14.40;77.10;;;;;;5095705;28;20276;-64
2022/04/14 06:51:34;;;;;;;11.95;8.32;;;14.60;76.80;;;;;;5096069;28;20188;-65
2022/04/14 06:54:01;;;;;;;12.50;7.03;;;14.80;76.70;;;;;;5096212;28;20285;-65
2022/04/14 06:56:28;;;;;;;7.30;6.37;;;15.00;75.50;;;;;;5099234;28;20522;-65
2022/04/14 06:58:55;;;;;;;8.00;5.70;;;15.20;75.30;;;;;;5098795;28;20542;-65
2022/04/14 07:01:23;;;;;;;9.87;6.50;;;15.40;75.00;;;;;;5100848;28;20896;-65
2022/04/14 07:03:50;;;;;;;14.53;9.47;;;15.60;73.90;;;;;;5101196;28;20450;-65
2022/04/14 07:06:17;;;;;;;9.33;6.63;;;15.80;73.20;;;;;;5099972;28;20521;-65
2022/04/14 07:08:45;;;;;;;9.37;6.80;;;16.00;71.20;;;;;;5100792;28;20441;-65
2022/04/14 07:11:12;;;;;;;9.50;6.87;;;16.30;70.60;;;;;;5102184;28;20548;-65
2022/04/14 07:13:40;;;;;;;9.40;5.00;;;16.50;70.30;;;;;;5096802;28;20516;-65
2022/04/14 07:16:06;;;;;;;13.43;5.80;;;16.70;63.40;;;;;;5098778;28;20542;-64
2022/04/14 07:18:34;;;;;;;9.57;5.87;;;16.90;64.10;;;;;;5102823;28;20550;-65
2022/04/14 07:21:01;;;;;;;8.10;4.50;;;17.10;62.00;;;;;;5103125;28;20520;-65
2022/04/14 07:23:28;;;;;;;7.27;5.17;;;17.30;62.00;;;;;;5105559;28;20913;-65
2022/04/14 07:25:57;;;;;;;8.00;5.03;;;17.70;58.70;;;;;;5102516;28;20450;-65
2022/04/14 07:28:24;;;;;;;7.73;3.77;;;18.20;58.30;;;;;;5103367;28;20482;-64
2022/04/14 07:30:51;;;;;;;8.57;4.00;;;18.60;56.80;;;;;;5103393;28;20438;-65
2022/04/14 07:33:18;;;;;;;6.57;3.80;;;19.20;56.80;;;;;;5104064;28;20528;-65
2022/04/14 07:35:45;;;;;;;5.97;4.10;;;20.00;54.20;;;;;;5105010;28;20841;-65
2022/04/14 07:38:13;;;;;;;8.60;3.53;;;20.70;53.40;;;;;;5099975;28;20437;-65
2022/04/14 07:40:40;;;;;;;6.10;2.80;;;21.60;50.10;;;;;;5104180;28;20493;-65
2022/04/14 07:43:09;;;;;;;6.70;3.40;;;22.90;48.80;;;;;;5102459;28;20451;-65
2022/04/14 07:45:36;;;;;;;6.27;3.60;;;25.40;47.80;;;;;;5105696;28;20486;-65
2022/04/14 07:48:04;;;;;;;4.83;2.53;;;27.80;41.80;;;;;;5105512;28;20431;-65
2022/04/14 07:50:32;;;;;;;5.07;3.17;;;29.50;37.40;;;;;;5102500;28;20767;-65
2022/04/14 07:53:00;;;;;;;5.73;3.40;;;30.80;36.50;;;;;;5102678;28;20471;-63
2022/04/14 07:55:28;;;;;;;4.73;2.83;;;32.00;31.40;;;;;;5105498;28;20452;-63
2022/04/14 07:57:57;;;;;;;8.30;3.10;;;33.00;29.10;;;;;;5103324;28;20825;-63
2022/04/14 08:00:26;;;;;;;7.50;3.20;;;33.90;27.20;;;;;;5105891;28;20533;-63
2022/04/14 08:02:57;;;;;;;6.10;3.27;;;34.80;25.80;;;;;;5103820;28;20491;-64
2022/04/14 08:05:29;;;;;;;7.33;3.10;;;35.40;25.40;;;;;;5106606;27;20781;-64
2022/04/14 08:07:56;;;;;;;9.03;4.30;;;36.30;25.00;;;;;;5106899;28;20430;-63
2022/04/14 08:10:23;;;;;;;11.47;5.10;;;37.00;22.80;;;;;;5107124;28;20500;-63
2022/04/14 08:12:50;;;;;;;6.70;3.90;;;37.70;21.40;;;;;;5107877;28;20441;-63
2022/04/14 08:15:17;;;;;;;8.20;3.93;;;38.20;20.90;;;;;;5105083;28;20520;-63
2022/04/14 08:17:46;;;;;;;5.93;3.80;;;38.90;20.10;;;;;;5108039;28;20921;-63
2022/04/14 08:20:15;;;;;;;5.90;4.13;;;39.50;19.40;;;;;;5108086;28;20525;-63
2022/04/14 08:22:47;;;;;;;7.63;4.00;;;39.90;18.30;;;;;;5105805;28;20489;-63
2022/04/14 08:25:15;;;;;;;7.90;4.80;;;40.30;18.90;;;;;;5108803;28;20434;-64
2022/04/14 08:27:42;;;;;;;6.60;4.20;;;41.00;18.30;;;;;;5109480;28;20538;-63
2022/04/14 08:30:10;;;;;;;7.17;4.73;;;41.50;16.90;;;;;;5107930;28;20867;-63
2022/04/14 08:32:38;;;;;;;6.70;5.17;;;41.70;17.00;;;;;;5108566;28;20517;-63
2022/04/14 08:35:08;;;;;;;9.03;5.03;;;42.20;16.50;;;;;;5109256;28;20534;-63
2022/04/14 08:37:35;;;;;;;6.40;4.30;;;42.40;15.50;;;;;;5109397;28;21989;-63
2022/04/14 08:40:05;;;;;;;9.10;5.33;;;42.70;15.10;;;;;;5107732;28;20846;-63
2022/04/14 08:42:37;;;;;;;8.27;5.13;;;42.90;15.20;;;;;;5108481;28;20470;-63
2022/04/14 08:45:06;;;;;;;6.13;4.13;;;43.10;15.30;;;;;;5109848;28;20438;-68
2022/04/14 08:47:36;;;;;;;9.47;5.17;;;43.40;14.90;;;;;;5110111;28;20438;-64
2022/04/14 08:50:05;;;;;;;4.70;3.77;;;43.80;14.70;;;;;;5106587;28;20842;-64
2022/04/14 08:52:35;;;;;;;7.17;4.43;;;44.40;14.20;;;;;;5109096;28;20568;-63
2022/04/14 08:55:04;;;;;;;9.30;4.20;;;44.70;13.50;;;;;;5110530;28;20528;-65
2022/04/14 08:57:33;;;;;;;13.03;3.70;;;44.90;13.20;;;;;;5109526;28;20488;-64
2022/04/14 09:00:00;;;;;;;9.60;4.00;;;44.90;13.20;;;;;;5108821;28;20477;-64
2022/04/14 09:02:28;;;;;;;6.27;3.83;;;45.20;13.40;;;;;;5106629;28;20448;-64
2022/04/14 09:04:56;;;;;;;7.43;3.80;;;45.50;13.30;;;;;;5109813;28;20513;-64
2022/04/14 09:07:24;;;;;;;5.20;3.50;;;45.80;12.90;;;;;;5110338;28;20445;-63
2022/04/14 09:09:53;;;;;;;6.63;3.63;;;45.90;12.20;;;;;;5103591;28;20529;-63
2022/04/14 09:12:20;;;;;;;6.03;4.07;;;45.90;12.30;;;;;;5107320;28;20521;-63
2022/04/14 09:14:48;;;;;;;10.13;4.77;;;45.40;12.10;;;;;;5111013;28;20465;-64
2022/04/14 09:17:15;;;;;;;6.30;4.20;;;45.20;12.40;;;;;;5106769;28;20821;-63
2022/04/14 09:19:43;;;;;;;6.50;4.13;;;45.40;12.40;;;;;;5110243;28;20530;-64
2022/04/14 09:22:11;;;;;;;7.67;5.37;;;45.60;12.30;;;;;;5110716;28;20854;-63
2022/04/14 09:24:47;;;;;;;5.70;4.03;;;45.70;11.30;;;;;;5111197;28;20849;-63
2022/04/14 09:27:26;;;;;;;7.30;5.40;;;45.60;12.10;;;;;;5102721;28;20447;-63
2022/04/14 09:29:56;;;;;;;5.13;4.17;;;45.80;11.70;;;;;;5103122;28;20491;-64
2022/04/14 09:32:34;;;;;;;15.80;5.00;;;45.80;11.90;;;;;;5103842;28;20565;-64
2022/04/14 09:35:03;;;;;;;7.40;3.97;;;45.80;11.60;;;;;;5105887;28;20429;-63
2022/04/14 09:37:31;;;;;;;4.67;4.27;;;45.80;11.80;;;;;;5110660;28;20517;-64
2022/04/14 09:40:00;;;;;;;8.80;4.33;;;45.60;11.90;;;;;;5105846;28;20513;-64
2022/04/14 09:42:30;;;;;;;5.80;3.97;;;45.30;11.50;;;;;;5111146;28;20438;-63
2022/04/14 09:45:18;;;;;;;8.60;4.60;;;45.00;11.60;;;;;;5103291;28;20972;-64
2022/04/14 09:47:45;;;;;;;6.10;4.50;;;44.60;11.10;;;;;;5111859;28;20450;-63
2022/04/14 09:50:27;;;;;;;9.93;4.43;;;43.80;11.00;;;;;;5100264;28;20439;-63
2022/04/14 09:52:59;;;;;;;6.67;4.53;;;43.30;11.70;;;;;;5103519;28;20572;-64
2022/04/14 09:55:26;;;;;;;6.60;3.83;;;43.00;11.40;;;;;;5103786;28;20436;-64
2022/04/14 09:58:09;;;;;;;8.20;4.70;;;42.70;11.90;;;;;;5103019;28;20430;-63
2022/04/14 10:00:44;;;;;;;10.03;4.80;;;42.40;11.40;;;;;;5103942;28;20465;-63
2022/04/14 10:03:13;;;;;;;5.67;3.70;;;41.70;11.90;;;;;;5108347;28;20524;-63
2022/04/14 10:05:41;;;;;;;7.53;3.83;;;41.60;12.20;;;;;;5108728;28;20438;-63
2022/04/14 10:08:08;;;;;;;4.93;3.70;;;41.60;11.70;;;;;;5110138;28;20482;-63
2022/04/14 10:10:37;;;;;;;6.80;4.00;;;41.50;12.20;;;;;;5109030;28;20463;-63
2022/04/14 10:13:07;;;;;;;7.00;3.47;;;41.40;12.60;;;;;;5110549;28;20809;-63
2022/04/14 10:15:36;;;;;;;4.73;3.20;;;41.30;13.30;;;;;;5106850;28;20427;-63
2022/04/14 10:18:07;;;;;;;5.00;3.40;;;41.20;13.50;;;;;;5107120;28;20473;-63
2022/04/14 10:20:39;;;;;;;4.70;3.50;;;40.70;12.30;;;;;;5105193;28;20767;-63
2022/04/14 10:23:08;;;;;;;6.37;3.87;;;40.20;12.10;;;;;;5092405;28;20535;-63
2022/04/14 10:25:37;;;;;;;5.73;3.67;;;39.90;12.30;;;;;;5092520;28;20986;-63
2022/04/14 10:28:08;;;;;;;9.00;4.47;;;39.60;12.90;;;;;;5092141;28;20530;-63
2022/04/14 10:30:35;;;;;;;7.97;3.40;;;39.40;13.40;;;;;;5091623;28;20439;-63
2022/04/14 10:33:02;;;;;;;5.53;3.70;;;39.30;13.50;;;;;;5094613;28;20601;-64
2022/04/14 10:35:30;;;;;;;7.33;3.50;;;39.00;14.20;;;;;;5103194;28;20516;-63
2022/04/14 10:38:06;;;;;;;8.07;3.43;;;38.90;14.10;;;;;;5099521;28;20481;-63
2022/04/14 10:40:36;;;;;;;4.50;3.00;;;38.80;13.30;;;;;;5090584;28;20486;-63
2022/04/14 10:43:09;;;;;;;5.47;2.87;;;38.60;13.60;;;;;;5090625;28;20470;-63
2022/04/14 10:45:48;;;;;;;6.20;2.87;;;38.40;13.10;;;;;;5091389;28;20513;-63
2022/04/14 10:48:28;;;;;;;5.43;2.57;;;38.00;13.50;;;;;;5094766;28;20934;-64
2022/04/14 10:51:20;;;;;;;6.87;3.00;;;37.70;14.50;;;;;;5093055;28;20785;-63
2022/04/14 10:53:51;;;;;;;4.20;2.80;;;37.70;15.40;;;;;;5092223;28;20560;-63
2022/04/14 10:56:47;;;;;;;7.83;1.87;;;37.70;13.70;;;;;;5092898;28;20438;-63
2022/04/14 10:59:16;;;;;;;10.57;2.93;;;37.40;13.60;;;;;;5092374;28;20431;-63
2022/04/14 11:02:04;;;;;;;5.87;2.10;;;37.20;12.70;;;;;;5092743;28;20463;-62
2022/04/14 11:04:51;;;;;;;5.30;2.23;;;36.90;13.80;;;;;;5092276;28;20419;-63
2022/04/14 11:07:20;;;;;;;4.03;2.00;;;37.00;13.30;;;;;;5092581;28;20445;-63
2022/04/14 11:09:57;;;;;;;8.20;2.53;;;36.90;13.60;;;;;;5092153;28;20446;-63
2022/04/14 11:12:25;;;;;;;5.10;2.63;;;36.60;13.30;;;;;;5092430;28;20485;-64
2022/04/14 11:14:59;;;;;;;5.50;2.47;;;36.20;14.30;;;;;;5092860;28;20843;-62
2022/04/14 11:17:57;;;;;;;11.53;2.97;;;35.90;14.70;;;;;;5092745;28;20553;-68
2022/04/14 11:20:45;;;;;;;9.43;3.07;;;35.80;15.10;;;;;;5070822;28;20994;-63
2022/04/14 11:23:13;;;;;;;4.57;2.30;;;35.60;16.00;;;;;;5092367;28;20802;-63
2022/04/14 11:25:51;;;;;;;4.17;2.03;;;35.30;16.30;;;;;;5093791;28;20443;-63
2022/04/14 11:28:24;;;;;;;5.57;2.20;;;34.90;16.50;;;;;;5095767;28;20431;-62
2022/04/14 11:30:54;;;;;;;6.50;2.63;;;34.70;16.50;;;;;;5095399;28;20439;-63
2022/04/14 11:33:34;;;;;;;8.50;2.67;;;34.50;17.00;;;;;;5095328;28;20516;-62
2022/04/14 11:36:16;;;;;;;5.47;2.60;;;34.20;17.20;;;;;;5094758;28;20431;-63
2022/04/14 11:39:01;;;;;;;4.00;2.27;;;34.00;17.60;;;;;;5095827;28;20457;-62
2022/04/14 11:41:37;;;;;;;6.27;2.97;;;33.80;17.20;;;;;;5094174;28;20522;-63
2022/04/14 11:44:05;;;;;;;4.90;2.50;;;33.60;18.10;;;;;;5082105;28;20430;-62
2022/04/14 11:46:37;;;;;;;5.33;2.67;;;33.40;18.30;;;;;;5095139;28;20463;-63
2022/04/14 11:49:04;;;;;;;8.17;2.80;;;33.20;18.60;;;;;;5095369;28;20432;-63
2022/04/14 11:51:32;;;;;;;4.30;2.53;;;33.00;18.30;;;;;;5095534;28;20435;-62
2022/04/14 11:53:59;;;;;;;6.43;3.70;;;32.70;19.40;;;;;;5095106;28;20510;-63
2022/04/14 11:56:26;;;;;;;5.00;2.60;;;32.40;19.90;;;;;;5095480;28;20466;-63
2022/04/14 11:58:54;;;;;;;7.50;3.23;;;32.30;19.70;;;;;;5095491;28;20475;-62
2022/04/14 12:01:22;;;;;;;7.83;3.10;;;32.10;19.00;;;;;;5095487;28;20439;-62
2022/04/14 12:03:50;;;;;;;5.17;2.43;;;32.00;18.70;;;;;;5095041;28;20530;-62
2022/04/14 12:06:18;;;;;;;9.97;2.90;;;31.80;18.50;;;;;;5095349;28;20530;-62
2022/04/14 12:08:55;;;;;;;8.67;2.33;;;31.60;19.10;;;;;;5095099;28;20900;-63
2022/04/14 12:11:29;;;;;;;8.10;2.70;;;31.30;18.80;;;;;;5094977;28;20492;-62
2022/04/14 12:13:56;;;;;;;3.43;2.37;;;31.20;19.50;;;;;;5094999;28;20506;-64
2022/04/14 12:16:23;;;;;;;4.53;2.00;;;31.00;20.00;;;;;;5095131;28;20471;-62
2022/04/14 12:18:55;;;;;;;3.87;2.27;;;30.80;19.70;;;;;;5094971;28;20854;-62
2022/04/14 12:21:23;;;;;;;4.33;2.23;;;30.60;19.10;;;;;;5095074;28;20773;-62
2022/04/14 12:23:52;;;;;;;4.67;2.50;;;30.40;19.40;;;;;;5094832;28;21016;-62
2022/04/14 12:26:19;;;;;;;6.23;2.03;;;30.20;19.40;;;;;;5094669;28;20491;-63
2022/04/14 12:28:47;;;;;;;5.20;2.50;;;30.00;19.80;;;;;;5094764;28;20439;-63
2022/04/14 12:31:16;;;;;;;5.83;2.60;;;29.90;20.20;;;;;;5094932;28;20441;-62
2022/04/14 12:33:56;;;;;;;6.13;2.00;;;29.70;20.50;;;;;;5094793;28;20493;-62
2022/04/14 12:36:33;;;;;;;7.17;2.00;;;29.70;21.20;;;;;;5094797;28;20439;-63
2022/04/14 12:39:00;;;;;;;11.30;2.57;;;29.50;21.90;;;;;;5094626;28;20448;-63
2022/04/14 12:41:36;;;;;;;9.03;2.40;;;29.40;20.90;;;;;;5094445;28;20442;-63
2022/04/14 12:44:05;;;;;;;6.70;2.17;;;29.20;21.30;;;;;;5094184;28;20431;-63
2022/04/14 12:46:38;;;;;;;2.93;1.60;;;29.10;21.40;;;;;;5094349;28;20442;-63
2022/04/14 12:49:08;;;;;;;11.60;2.60;;;29.00;20.50;;;;;;5093947;28;20433;-63
2022/04/14 12:51:39;;;;;;;5.40;2.60;;;29.00;20.80;;;;;;5094185;28;20862;-62
2022/04/14 12:54:07;;;;;;;5.40;2.47;;;28.90;21.30;;;;;;5094267;28;20483;-62
2022/04/14 12:56:36;;;;;;;5.13;1.83;;;28.70;21.80;;;;;;5093821;28;20435;-63